sensor_id;sensor_type;location;lat;lon;timestamp;P1;durP1;ratioP1;P2;durP2;ratioP2
42846;SDS011;28495;49.916;14.536;2023-03-19T00:03:38;32.55;;;17.45;;
42846;SDS011;28495;49.916;14.536;2023-03-19T00:08:58;22.90;;;12.85;;
42846;SDS011;28495;49.916;14.536;2023-03-19T00:14:19;25.35;;;12.05;;
42846;SDS011;28495;49.916;14.536;2023-03-19T00:19:40;22.67;;;11.93;;
42846;SDS011;28495;49.916;14.536;2023-03-19T00:25:01;19.85;;;10.93;;
42846;SDS011;28495;49.916;14.536;2023-03-19T00:30:22;22.00;;;11.63;;
42846;SDS011;28495;49.916;14.536;2023-03-19T00:35:44;23.65;;;11.57;;
42846;SDS011;28495;49.916;14.536;2023-03-19T00:41:05;23.75;;;11.63;;
42846;SDS011;28495;49.916;14.536;2023-03-19T00:46:27;21.30;;;11.13;;
42846;SDS011;28495;49.916;14.536;2023-03-19T00:51:47;20.67;;;10.68;;
42846;SDS011;28495;49.916;14.536;2023-03-19T00:57:08;23.75;;;11.35;;
42846;SDS011;28495;49.916;14.536;2023-03-19T01:02:30;20.13;;;10.63;;
42846;SDS011;28495;49.916;14.536;2023-03-19T01:07:51;21.45;;;10.15;;
42846;SDS011;28495;49.916;14.536;2023-03-19T01:13:13;23.25;;;10.80;;
42846;SDS011;28495;49.916;14.536;2023-03-19T01:18:34;22.88;;;12.15;;
42846;SDS011;28495;49.916;14.536;2023-03-19T01:23:55;20.80;;;11.68;;
42846;SDS011;28495;49.916;14.536;2023-03-19T01:29:18;19.05;;;11.27;;
42846;SDS011;28495;49.916;14.536;2023-03-19T01:34:39;24.23;;;11.77;;
42846;SDS011;28495;49.916;14.536;2023-03-19T01:40:02;20.13;;;10.73;;
42846;SDS011;28495;49.916;14.536;2023-03-19T01:45:28;21.17;;;10.85;;
42846;SDS011;28495;49.916;14.536;2023-03-19T01:51:31;20.77;;;9.60;;
42846;SDS011;28495;49.916;14.536;2023-03-19T01:56:59;16.20;;;9.02;;
42846;SDS011;28495;49.916;14.536;2023-03-19T02:02:43;15.60;;;9.38;;
42846;SDS011;28495;49.916;14.536;2023-03-19T02:08:20;20.88;;;10.50;;
42846;SDS011;28495;49.916;14.536;2023-03-19T02:13:43;21.65;;;11.10;;
42846;SDS011;28495;49.916;14.536;2023-03-19T02:19:05;20.50;;;10.35;;
42846;SDS011;28495;49.916;14.536;2023-03-19T02:24:35;15.68;;;9.68;;
42846;SDS011;28495;49.916;14.536;2023-03-19T02:30:19;19.27;;;9.27;;
42846;SDS011;28495;49.916;14.536;2023-03-19T02:35:47;17.58;;;9.45;;
42846;SDS011;28495;49.916;14.536;2023-03-19T02:41:11;19.92;;;10.43;;
42846;SDS011;28495;49.916;14.536;2023-03-19T02:46:32;19.42;;;10.32;;
42846;SDS011;28495;49.916;14.536;2023-03-19T02:51:53;18.35;;;9.52;;
42846;SDS011;28495;49.916;14.536;2023-03-19T02:57:14;16.85;;;9.02;;
42846;SDS011;28495;49.916;14.536;2023-03-19T03:02:35;22.33;;;8.82;;
42846;SDS011;28495;49.916;14.536;2023-03-19T03:07:58;19.35;;;10.23;;
42846;SDS011;28495;49.916;14.536;2023-03-19T03:13:19;18.55;;;9.25;;
42846;SDS011;28495;49.916;14.536;2023-03-19T03:18:40;16.48;;;9.30;;
42846;SDS011;28495;49.916;14.536;2023-03-19T03:24:02;16.92;;;9.20;;
42846;SDS011;28495;49.916;14.536;2023-03-19T03:29:23;17.23;;;9.13;;
42846;SDS011;28495;49.916;14.536;2023-03-19T03:34:44;17.33;;;8.30;;
42846;SDS011;28495;49.916;14.536;2023-03-19T03:40:06;19.80;;;8.82;;
42846;SDS011;28495;49.916;14.536;2023-03-19T03:45:29;15.93;;;8.65;;
42846;SDS011;28495;49.916;14.536;2023-03-19T03:50:50;13.20;;;7.50;;
42846;SDS011;28495;49.916;14.536;2023-03-19T03:56:16;13.70;;;7.35;;
42846;SDS011;28495;49.916;14.536;2023-03-19T04:01:37;15.48;;;7.70;;
42846;SDS011;28495;49.916;14.536;2023-03-19T04:06:58;13.13;;;7.07;;
42846;SDS011;28495;49.916;14.536;2023-03-19T04:12:34;14.20;;;8.10;;
42846;SDS011;28495;49.916;14.536;2023-03-19T04:17:57;13.23;;;7.07;;
42846;SDS011;28495;49.916;14.536;2023-03-19T04:23:18;13.35;;;6.68;;
42846;SDS011;28495;49.916;14.536;2023-03-19T04:28:39;16.25;;;7.28;;
42846;SDS011;28495;49.916;14.536;2023-03-19T04:33:59;18.63;;;7.28;;
42846;SDS011;28495;49.916;14.536;2023-03-19T04:39:21;12.63;;;7.78;;
42846;SDS011;28495;49.916;14.536;2023-03-19T04:44:44;13.90;;;7.82;;
42846;SDS011;28495;49.916;14.536;2023-03-19T04:50:06;12.45;;;7.93;;
42846;SDS011;28495;49.916;14.536;2023-03-19T04:55:28;13.70;;;7.63;;
42846;SDS011;28495;49.916;14.536;2023-03-19T05:01:08;12.60;;;6.95;;
42846;SDS011;28495;49.916;14.536;2023-03-19T05:07:04;15.32;;;7.75;;
42846;SDS011;28495;49.916;14.536;2023-03-19T05:12:25;12.32;;;7.22;;
42846;SDS011;28495;49.916;14.536;2023-03-19T05:17:49;11.98;;;7.43;;
42846;SDS011;28495;49.916;14.536;2023-03-19T05:23:22;16.27;;;7.35;;
42846;SDS011;28495;49.916;14.536;2023-03-19T05:28:51;10.90;;;6.50;;
42846;SDS011;28495;49.916;14.536;2023-03-19T05:34:23;13.35;;;6.82;;
42846;SDS011;28495;49.916;14.536;2023-03-19T05:39:44;12.23;;;7.28;;
42846;SDS011;28495;49.916;14.536;2023-03-19T05:45:06;13.48;;;6.75;;
42846;SDS011;28495;49.916;14.536;2023-03-19T05:50:33;12.50;;;6.88;;
42846;SDS011;28495;49.916;14.536;2023-03-19T05:56:10;13.93;;;6.70;;
42846;SDS011;28495;49.916;14.536;2023-03-19T06:01:45;16.88;;;7.07;;
42846;SDS011;28495;49.916;14.536;2023-03-19T06:07:05;14.35;;;7.20;;
42846;SDS011;28495;49.916;14.536;2023-03-19T06:12:29;13.50;;;7.78;;
42846;SDS011;28495;49.916;14.536;2023-03-19T06:18:22;14.48;;;7.88;;
42846;SDS011;28495;49.916;14.536;2023-03-19T06:23:44;13.25;;;6.78;;
42846;SDS011;28495;49.916;14.536;2023-03-19T06:29:09;10.77;;;6.50;;
42846;SDS011;28495;49.916;14.536;2023-03-19T06:34:32;13.20;;;7.05;;
42846;SDS011;28495;49.916;14.536;2023-03-19T06:39:54;15.50;;;8.70;;
42846;SDS011;28495;49.916;14.536;2023-03-19T06:45:14;16.60;;;8.70;;
42846;SDS011;28495;49.916;14.536;2023-03-19T06:50:38;12.63;;;7.22;;
42846;SDS011;28495;49.916;14.536;2023-03-19T06:56:00;16.25;;;8.85;;
42846;SDS011;28495;49.916;14.536;2023-03-19T07:01:20;15.68;;;7.95;;
42846;SDS011;28495;49.916;14.536;2023-03-19T07:06:42;27.63;;;7.93;;
42846;SDS011;28495;49.916;14.536;2023-03-19T07:12:03;18.80;;;9.10;;
42846;SDS011;28495;49.916;14.536;2023-03-19T07:17:24;20.67;;;9.07;;
42846;SDS011;28495;49.916;14.536;2023-03-19T07:22:45;18.08;;;9.05;;
42846;SDS011;28495;49.916;14.536;2023-03-19T07:28:05;22.08;;;12.10;;
42846;SDS011;28495;49.916;14.536;2023-03-19T07:33:26;20.88;;;9.90;;
42846;SDS011;28495;49.916;14.536;2023-03-19T07:38:47;16.52;;;9.07;;
42846;SDS011;28495;49.916;14.536;2023-03-19T07:44:08;17.38;;;10.13;;
42846;SDS011;28495;49.916;14.536;2023-03-19T07:49:28;16.52;;;9.07;;
42846;SDS011;28495;49.916;14.536;2023-03-19T07:54:49;17.15;;;9.40;;
42846;SDS011;28495;49.916;14.536;2023-03-19T08:00:12;20.45;;;9.82;;
42846;SDS011;28495;49.916;14.536;2023-03-19T08:05:35;11.02;;;6.93;;
42846;SDS011;28495;49.916;14.536;2023-03-19T08:10:57;13.30;;;6.70;;
42846;SDS011;28495;49.916;14.536;2023-03-19T08:16:17;14.50;;;8.15;;
42846;SDS011;28495;49.916;14.536;2023-03-19T08:21:38;20.17;;;9.10;;
42846;SDS011;28495;49.916;14.536;2023-03-19T08:26:59;13.55;;;7.25;;
42846;SDS011;28495;49.916;14.536;2023-03-19T08:32:20;13.98;;;8.25;;
42846;SDS011;28495;49.916;14.536;2023-03-19T08:37:41;11.45;;;6.45;;
42846;SDS011;28495;49.916;14.536;2023-03-19T08:43:02;13.13;;;7.50;;
42846;SDS011;28495;49.916;14.536;2023-03-19T08:48:23;13.85;;;8.18;;
42846;SDS011;28495;49.916;14.536;2023-03-19T08:53:44;16.70;;;9.05;;
42846;SDS011;28495;49.916;14.536;2023-03-19T08:59:06;13.90;;;7.45;;
42846;SDS011;28495;49.916;14.536;2023-03-19T09:04:27;14.13;;;9.27;;
42846;SDS011;28495;49.916;14.536;2023-03-19T09:09:48;11.52;;;7.28;;
42846;SDS011;28495;49.916;14.536;2023-03-19T09:15:09;10.05;;;6.07;;
42846;SDS011;28495;49.916;14.536;2023-03-19T09:20:30;11.50;;;7.07;;
42846;SDS011;28495;49.916;14.536;2023-03-19T09:25:50;11.48;;;7.03;;
42846;SDS011;28495;49.916;14.536;2023-03-19T09:31:12;11.55;;;6.22;;
42846;SDS011;28495;49.916;14.536;2023-03-19T09:36:32;10.52;;;6.07;;
42846;SDS011;28495;49.916;14.536;2023-03-19T09:47:33;10.00;;;6.00;;
42846;SDS011;28495;49.916;14.536;2023-03-19T09:53:01;10.93;;;7.25;;
42846;SDS011;28495;49.916;14.536;2023-03-19T09:58:31;11.65;;;6.95;;
42846;SDS011;28495;49.916;14.536;2023-03-19T10:15:34;12.43;;;7.68;;
42846;SDS011;28495;49.916;14.536;2023-03-19T10:21:10;13.32;;;8.30;;
42846;SDS011;28495;49.916;14.536;2023-03-19T10:37:32;10.88;;;7.15;;
42846;SDS011;28495;49.916;14.536;2023-03-19T10:43:00;13.98;;;9.05;;
42846;SDS011;28495;49.916;14.536;2023-03-19T10:48:26;11.05;;;6.60;;
42846;SDS011;28495;49.916;14.536;2023-03-19T10:53:48;12.70;;;7.10;;
42846;SDS011;28495;49.916;14.536;2023-03-19T10:59:22;16.38;;;8.23;;
42846;SDS011;28495;49.916;14.536;2023-03-19T11:04:46;12.25;;;6.82;;
42846;SDS011;28495;49.916;14.536;2023-03-19T11:10:13;15.90;;;9.10;;
42846;SDS011;28495;49.916;14.536;2023-03-19T11:15:36;14.85;;;7.50;;
42846;SDS011;28495;49.916;14.536;2023-03-19T11:20:58;18.45;;;9.32;;
42846;SDS011;28495;49.916;14.536;2023-03-19T11:26:24;13.73;;;6.85;;
42846;SDS011;28495;49.916;14.536;2023-03-19T11:32:00;13.82;;;8.13;;
42846;SDS011;28495;49.916;14.536;2023-03-19T11:43:21;11.25;;;7.13;;
42846;SDS011;28495;49.916;14.536;2023-03-19T11:48:48;13.07;;;7.25;;
42846;SDS011;28495;49.916;14.536;2023-03-19T11:54:36;14.20;;;8.27;;
42846;SDS011;28495;49.916;14.536;2023-03-19T12:00:35;16.45;;;7.40;;
42846;SDS011;28495;49.916;14.536;2023-03-19T12:11:57;18.45;;;9.25;;
42846;SDS011;28495;49.916;14.536;2023-03-19T12:29:22;16.20;;;8.20;;
42846;SDS011;28495;49.916;14.536;2023-03-19T12:35:00;15.60;;;8.10;;
42846;SDS011;28495;49.916;14.536;2023-03-19T12:40:34;13.02;;;7.82;;
42846;SDS011;28495;49.916;14.536;2023-03-19T12:45:59;12.85;;;7.57;;
42846;SDS011;28495;49.916;14.536;2023-03-19T12:51:27;14.03;;;7.13;;
42846;SDS011;28495;49.916;14.536;2023-03-19T13:08:28;13.77;;;6.60;;
42846;SDS011;28495;49.916;14.536;2023-03-19T13:14:12;11.30;;;6.15;;
42846;SDS011;28495;49.916;14.536;2023-03-19T13:19:39;14.00;;;7.45;;
42846;SDS011;28495;49.916;14.536;2023-03-19T13:25:01;13.50;;;6.22;;
42846;SDS011;28495;49.916;14.536;2023-03-19T13:30:25;13.10;;;7.13;;
42846;SDS011;28495;49.916;14.536;2023-03-19T13:35:49;12.77;;;6.95;;
42846;SDS011;28495;49.916;14.536;2023-03-19T13:46:54;11.65;;;7.10;;
42846;SDS011;28495;49.916;14.536;2023-03-19T13:57:35;14.23;;;7.78;;
42846;SDS011;28495;49.916;14.536;2023-03-19T14:02:58;11.90;;;7.22;;
42846;SDS011;28495;49.916;14.536;2023-03-19T14:08:21;12.27;;;6.50;;
42846;SDS011;28495;49.916;14.536;2023-03-19T14:13:48;12.95;;;7.70;;
42846;SDS011;28495;49.916;14.536;2023-03-19T14:19:15;11.93;;;7.50;;
42846;SDS011;28495;49.916;14.536;2023-03-19T14:24:37;13.02;;;7.50;;
42846;SDS011;28495;49.916;14.536;2023-03-19T14:35:45;12.10;;;7.82;;
42846;SDS011;28495;49.916;14.536;2023-03-19T14:41:11;20.02;;;9.88;;
42846;SDS011;28495;49.916;14.536;2023-03-19T14:57:55;16.65;;;9.35;;
42846;SDS011;28495;49.916;14.536;2023-03-19T15:03:29;17.27;;;9.05;;
42846;SDS011;28495;49.916;14.536;2023-03-19T15:08:51;17.80;;;9.68;;
42846;SDS011;28495;49.916;14.536;2023-03-19T15:14:36;17.45;;;9.73;;
42846;SDS011;28495;49.916;14.536;2023-03-19T15:20:12;14.60;;;8.90;;
42846;SDS011;28495;49.916;14.536;2023-03-19T15:25:47;22.35;;;10.63;;
42846;SDS011;28495;49.916;14.536;2023-03-19T15:31:16;17.33;;;10.13;;
42846;SDS011;28495;49.916;14.536;2023-03-19T15:36:54;19.08;;;10.48;;
42846;SDS011;28495;49.916;14.536;2023-03-19T15:42:23;20.20;;;9.55;;
42846;SDS011;28495;49.916;14.536;2023-03-19T15:47:48;18.42;;;9.55;;
42846;SDS011;28495;49.916;14.536;2023-03-19T15:53:23;28.35;;;8.75;;
42846;SDS011;28495;49.916;14.536;2023-03-19T15:58:47;17.85;;;9.60;;
42846;SDS011;28495;49.916;14.536;2023-03-19T16:04:16;15.90;;;8.73;;
42846;SDS011;28495;49.916;14.536;2023-03-19T16:15:20;18.42;;;8.23;;
42846;SDS011;28495;49.916;14.536;2023-03-19T16:20:41;12.07;;;7.78;;
42846;SDS011;28495;49.916;14.536;2023-03-19T16:26:21;14.90;;;7.90;;
42846;SDS011;28495;49.916;14.536;2023-03-19T16:31:57;16.10;;;9.93;;
42846;SDS011;28495;49.916;14.536;2023-03-19T16:42:47;21.83;;;11.90;;
42846;SDS011;28495;49.916;14.536;2023-03-19T16:48:13;16.17;;;8.45;;
42846;SDS011;28495;49.916;14.536;2023-03-19T16:53:33;19.02;;;9.73;;
42846;SDS011;28495;49.916;14.536;2023-03-19T16:58:55;15.63;;;9.43;;
42846;SDS011;28495;49.916;14.536;2023-03-19T17:04:16;18.50;;;10.85;;
42846;SDS011;28495;49.916;14.536;2023-03-19T17:09:37;20.20;;;12.90;;
42846;SDS011;28495;49.916;14.536;2023-03-19T17:14:58;17.90;;;11.63;;
42846;SDS011;28495;49.916;14.536;2023-03-19T17:20:19;22.98;;;12.48;;
42846;SDS011;28495;49.916;14.536;2023-03-19T17:25:43;23.95;;;14.23;;
42846;SDS011;28495;49.916;14.536;2023-03-19T17:31:07;22.27;;;12.55;;
42846;SDS011;28495;49.916;14.536;2023-03-19T17:36:38;22.70;;;12.88;;
42846;SDS011;28495;49.916;14.536;2023-03-19T17:41:59;25.05;;;14.52;;
42846;SDS011;28495;49.916;14.536;2023-03-19T17:47:20;31.92;;;17.65;;
42846;SDS011;28495;49.916;14.536;2023-03-19T17:52:41;25.70;;;15.30;;
42846;SDS011;28495;49.916;14.536;2023-03-19T17:58:08;26.90;;;15.02;;
42846;SDS011;28495;49.916;14.536;2023-03-19T18:03:37;25.38;;;15.10;;
42846;SDS011;28495;49.916;14.536;2023-03-19T18:08:58;24.38;;;15.70;;
42846;SDS011;28495;49.916;14.536;2023-03-19T18:14:19;23.42;;;15.40;;
42846;SDS011;28495;49.916;14.536;2023-03-19T18:19:40;26.35;;;15.65;;
42846;SDS011;28495;49.916;14.536;2023-03-19T18:25:04;24.58;;;15.63;;
42846;SDS011;28495;49.916;14.536;2023-03-19T18:30:27;27.55;;;16.60;;
42846;SDS011;28495;49.916;14.536;2023-03-19T18:35:50;30.10;;;17.08;;
42846;SDS011;28495;49.916;14.536;2023-03-19T18:41:19;31.30;;;20.42;;
42846;SDS011;28495;49.916;14.536;2023-03-19T18:46:55;29.13;;;18.38;;
42846;SDS011;28495;49.916;14.536;2023-03-19T18:52:16;31.42;;;19.35;;
42846;SDS011;28495;49.916;14.536;2023-03-19T18:57:41;49.25;;;29.27;;
42846;SDS011;28495;49.916;14.536;2023-03-19T19:03:15;39.42;;;24.48;;
42846;SDS011;28495;49.916;14.536;2023-03-19T19:08:37;51.42;;;30.85;;
42846;SDS011;28495;49.916;14.536;2023-03-19T19:13:58;43.42;;;25.95;;
42846;SDS011;28495;49.916;14.536;2023-03-19T19:19:21;44.38;;;25.63;;
42846;SDS011;28495;49.916;14.536;2023-03-19T19:24:44;43.85;;;25.98;;
42846;SDS011;28495;49.916;14.536;2023-03-19T19:30:08;54.45;;;29.35;;
42846;SDS011;28495;49.916;14.536;2023-03-19T19:35:35;40.70;;;26.93;;
42846;SDS011;28495;49.916;14.536;2023-03-19T19:40:56;45.17;;;27.73;;
42846;SDS011;28495;49.916;14.536;2023-03-19T19:46:20;53.50;;;30.00;;
42846;SDS011;28495;49.916;14.536;2023-03-19T19:51:42;48.67;;;29.88;;
42846;SDS011;28495;49.916;14.536;2023-03-19T19:57:04;51.17;;;30.38;;
42846;SDS011;28495;49.916;14.536;2023-03-19T20:02:46;63.38;;;34.65;;
42846;SDS011;28495;49.916;14.536;2023-03-19T20:08:08;76.78;;;41.92;;
42846;SDS011;28495;49.916;14.536;2023-03-19T20:13:32;67.80;;;38.60;;
42846;SDS011;28495;49.916;14.536;2023-03-19T20:18:54;56.17;;;34.17;;
42846;SDS011;28495;49.916;14.536;2023-03-19T20:24:15;50.50;;;31.95;;
42846;SDS011;28495;49.916;14.536;2023-03-19T20:29:36;53.20;;;31.08;;
42846;SDS011;28495;49.916;14.536;2023-03-19T20:34:59;48.60;;;30.45;;
42846;SDS011;28495;49.916;14.536;2023-03-19T20:40:21;50.65;;;28.92;;
42846;SDS011;28495;49.916;14.536;2023-03-19T20:45:44;43.20;;;26.52;;
42846;SDS011;28495;49.916;14.536;2023-03-19T20:51:08;40.40;;;24.77;;
42846;SDS011;28495;49.916;14.536;2023-03-19T20:56:38;28.23;;;18.15;;
42846;SDS011;28495;49.916;14.536;2023-03-19T21:02:01;24.00;;;15.30;;
42846;SDS011;28495;49.916;14.536;2023-03-19T21:07:29;24.35;;;14.90;;
42846;SDS011;28495;49.916;14.536;2023-03-19T21:12:55;25.90;;;16.60;;
42846;SDS011;28495;49.916;14.536;2023-03-19T21:18:17;30.92;;;19.25;;
42846;SDS011;28495;49.916;14.536;2023-03-19T21:23:38;34.38;;;21.17;;
42846;SDS011;28495;49.916;14.536;2023-03-19T21:29:02;40.33;;;26.05;;
42846;SDS011;28495;49.916;14.536;2023-03-19T21:34:27;32.63;;;20.70;;
42846;SDS011;28495;49.916;14.536;2023-03-19T21:39:49;19.45;;;11.85;;
42846;SDS011;28495;49.916;14.536;2023-03-19T21:45:14;15.73;;;10.57;;
42846;SDS011;28495;49.916;14.536;2023-03-19T21:50:41;18.50;;;9.52;;
42846;SDS011;28495;49.916;14.536;2023-03-19T21:56:02;14.77;;;10.05;;
42846;SDS011;28495;49.916;14.536;2023-03-19T22:01:23;19.40;;;10.27;;
42846;SDS011;28495;49.916;14.536;2023-03-19T22:06:44;15.40;;;9.60;;
42846;SDS011;28495;49.916;14.536;2023-03-19T22:12:23;19.00;;;10.60;;
42846;SDS011;28495;49.916;14.536;2023-03-19T22:17:47;17.58;;;10.32;;
42846;SDS011;28495;49.916;14.536;2023-03-19T22:23:09;17.27;;;10.32;;
42846;SDS011;28495;49.916;14.536;2023-03-19T22:28:33;17.13;;;11.52;;
42846;SDS011;28495;49.916;14.536;2023-03-19T22:33:54;19.95;;;11.35;;
42846;SDS011;28495;49.916;14.536;2023-03-19T22:39:15;17.10;;;11.20;;
42846;SDS011;28495;49.916;14.536;2023-03-19T22:44:36;17.25;;;11.40;;
42846;SDS011;28495;49.916;14.536;2023-03-19T22:49:57;16.00;;;10.80;;
42846;SDS011;28495;49.916;14.536;2023-03-19T22:55:19;17.17;;;10.88;;
42846;SDS011;28495;49.916;14.536;2023-03-19T23:00:40;14.65;;;9.63;;
42846;SDS011;28495;49.916;14.536;2023-03-19T23:06:11;15.60;;;10.35;;
42846;SDS011;28495;49.916;14.536;2023-03-19T23:11:50;16.58;;;10.45;;
42846;SDS011;28495;49.916;14.536;2023-03-19T23:17:13;18.63;;;10.02;;
42846;SDS011;28495;49.916;14.536;2023-03-19T23:22:36;14.90;;;9.93;;
42846;SDS011;28495;49.916;14.536;2023-03-19T23:27:58;17.00;;;10.85;;
42846;SDS011;28495;49.916;14.536;2023-03-19T23:33:21;14.57;;;9.55;;
42846;SDS011;28495;49.916;14.536;2023-03-19T23:38:46;19.70;;;12.63;;
42846;SDS011;28495;49.916;14.536;2023-03-19T23:44:08;17.45;;;11.45;;
42846;SDS011;28495;49.916;14.536;2023-03-19T23:49:33;17.88;;;11.68;;
42846;SDS011;28495;49.916;14.536;2023-03-19T23:54:53;19.92;;;12.40;;
